sensor_id;sensor_type;location;lat;lon;timestamp;P1;durP1;ratioP1;P2;durP2;ratioP2
55015;SDS011;40919;43.236;21.590;2022-12-07T00:02:24;64.38;;;41.45;;
55015;SDS011;40919;43.236;21.590;2022-12-07T00:04:50;67.78;;;42.78;;
55015;SDS011;40919;43.236;21.590;2022-12-07T00:07:16;76.35;;;52.67;;
55015;SDS011;40919;43.236;21.590;2022-12-07T00:09:42;62.47;;;41.58;;
55015;SDS011;40919;43.236;21.590;2022-12-07T00:12:08;68.28;;;43.28;;
55015;SDS011;40919;43.236;21.590;2022-12-07T00:14:35;73.38;;;45.63;;
55015;SDS011;40919;43.236;21.590;2022-12-07T00:17:01;60.05;;;40.70;;
55015;SDS011;40919;43.236;21.590;2022-12-07T00:19:26;80.30;;;52.63;;
55015;SDS011;40919;43.236;21.590;2022-12-07T00:21:52;65.40;;;43.38;;
55015;SDS011;40919;43.236;21.590;2022-12-07T00:24:19;71.65;;;45.00;;
55015;SDS011;40919;43.236;21.590;2022-12-07T00:26:46;79.28;;;47.17;;
55015;SDS011;40919;43.236;21.590;2022-12-07T00:29:16;78.82;;;47.15;;
55015;SDS011;40919;43.236;21.590;2022-12-07T00:31:43;77.95;;;45.78;;
55015;SDS011;40919;43.236;21.590;2022-12-07T00:34:19;82.43;;;47.70;;
55015;SDS011;40919;43.236;21.590;2022-12-07T00:36:45;75.22;;;43.88;;
55015;SDS011;40919;43.236;21.590;2022-12-07T00:39:11;64.13;;;41.80;;
55015;SDS011;40919;43.236;21.590;2022-12-07T00:41:38;64.35;;;41.95;;
55015;SDS011;40919;43.236;21.590;2022-12-07T00:44:04;65.20;;;42.85;;
55015;SDS011;40919;43.236;21.590;2022-12-07T00:46:30;85.63;;;53.03;;
55015;SDS011;40919;43.236;21.590;2022-12-07T00:48:56;73.60;;;46.25;;
55015;SDS011;40919;43.236;21.590;2022-12-07T00:51:22;80.70;;;47.92;;
55015;SDS011;40919;43.236;21.590;2022-12-07T00:53:49;73.05;;;49.67;;
55015;SDS011;40919;43.236;21.590;2022-12-07T00:56:19;80.45;;;51.35;;
55015;SDS011;40919;43.236;21.590;2022-12-07T00:59:04;75.53;;;47.30;;
55015;SDS011;40919;43.236;21.590;2022-12-07T01:01:32;74.68;;;48.28;;
55015;SDS011;40919;43.236;21.590;2022-12-07T01:03:58;70.28;;;45.38;;
55015;SDS011;40919;43.236;21.590;2022-12-07T01:06:26;72.10;;;44.75;;
55015;SDS011;40919;43.236;21.590;2022-12-07T01:08:52;73.93;;;44.08;;
55015;SDS011;40919;43.236;21.590;2022-12-07T01:11:20;63.17;;;39.78;;
55015;SDS011;40919;43.236;21.590;2022-12-07T01:13:48;61.33;;;40.75;;
55015;SDS011;40919;43.236;21.590;2022-12-07T01:16:15;62.83;;;41.10;;
55015;SDS011;40919;43.236;21.590;2022-12-07T01:18:42;76.53;;;47.42;;
55015;SDS011;40919;43.236;21.590;2022-12-07T01:21:16;68.03;;;44.88;;
55015;SDS011;40919;43.236;21.590;2022-12-07T01:23:42;79.70;;;49.15;;
55015;SDS011;40919;43.236;21.590;2022-12-07T01:26:12;75.90;;;49.78;;
55015;SDS011;40919;43.236;21.590;2022-12-07T01:28:38;84.00;;;56.83;;
55015;SDS011;40919;43.236;21.590;2022-12-07T01:31:06;86.85;;;54.65;;
55015;SDS011;40919;43.236;21.590;2022-12-07T01:33:33;86.07;;;54.65;;
55015;SDS011;40919;43.236;21.590;2022-12-07T01:36:07;88.22;;;55.20;;
55015;SDS011;40919;43.236;21.590;2022-12-07T01:38:33;98.38;;;59.72;;
55015;SDS011;40919;43.236;21.590;2022-12-07T01:41:00;119.47;;;70.55;;
55015;SDS011;40919;43.236;21.590;2022-12-07T01:43:27;109.20;;;68.32;;
55015;SDS011;40919;43.236;21.590;2022-12-07T01:45:54;105.90;;;65.28;;
55015;SDS011;40919;43.236;21.590;2022-12-07T01:48:31;108.93;;;65.47;;
55015;SDS011;40919;43.236;21.590;2022-12-07T01:51:00;119.45;;;73.28;;
55015;SDS011;40919;43.236;21.590;2022-12-07T01:53:27;97.63;;;61.50;;
55015;SDS011;40919;43.236;21.590;2022-12-07T01:55:55;110.45;;;65.18;;
55015;SDS011;40919;43.236;21.590;2022-12-07T01:58:22;117.28;;;67.45;;
55015;SDS011;40919;43.236;21.590;2022-12-07T02:00:48;106.80;;;68.07;;
55015;SDS011;40919;43.236;21.590;2022-12-07T02:03:26;136.45;;;82.28;;
55015;SDS011;40919;43.236;21.590;2022-12-07T02:05:53;136.20;;;82.20;;
55015;SDS011;40919;43.236;21.590;2022-12-07T02:08:19;133.20;;;78.15;;
55015;SDS011;40919;43.236;21.590;2022-12-07T02:10:46;135.57;;;80.70;;
55015;SDS011;40919;43.236;21.590;2022-12-07T02:18:48;114.63;;;69.18;;
55015;SDS011;40919;43.236;21.590;2022-12-07T02:28:28;106.28;;;64.53;;
55015;SDS011;40919;43.236;21.590;2022-12-07T02:30:55;95.80;;;58.10;;
55015;SDS011;40919;43.236;21.590;2022-12-07T02:33:26;114.57;;;67.75;;
55015;SDS011;40919;43.236;21.590;2022-12-07T02:38:58;101.60;;;59.88;;
55015;SDS011;40919;43.236;21.590;2022-12-07T02:43:50;100.28;;;62.25;;
55015;SDS011;40919;43.236;21.590;2022-12-07T02:46:23;111.18;;;63.60;;
55015;SDS011;40919;43.236;21.590;2022-12-07T02:49:00;104.78;;;63.10;;
55015;SDS011;40919;43.236;21.590;2022-12-07T02:51:29;92.30;;;56.55;;
55015;SDS011;40919;43.236;21.590;2022-12-07T02:53:56;101.38;;;63.78;;
55015;SDS011;40919;43.236;21.590;2022-12-07T02:59:13;97.68;;;56.75;;
55015;SDS011;40919;43.236;21.590;2022-12-07T03:02:08;92.03;;;56.40;;
55015;SDS011;40919;43.236;21.590;2022-12-07T03:10:17;93.07;;;55.45;;
55015;SDS011;40919;43.236;21.590;2022-12-07T03:18:22;80.95;;;51.22;;
55015;SDS011;40919;43.236;21.590;2022-12-07T03:20:51;97.07;;;59.30;;
55015;SDS011;40919;43.236;21.590;2022-12-07T03:23:21;105.88;;;63.10;;
55015;SDS011;40919;43.236;21.590;2022-12-07T03:25:52;94.47;;;59.22;;
55015;SDS011;40919;43.236;21.590;2022-12-07T03:28:23;95.95;;;58.22;;
55015;SDS011;40919;43.236;21.590;2022-12-07T03:31:00;92.80;;;58.25;;
55015;SDS011;40919;43.236;21.590;2022-12-07T03:33:40;92.10;;;60.90;;
55015;SDS011;40919;43.236;21.590;2022-12-07T03:36:29;80.68;;;51.38;;
55015;SDS011;40919;43.236;21.590;2022-12-07T03:41:42;105.18;;;64.72;;
55015;SDS011;40919;43.236;21.590;2022-12-07T03:44:09;110.53;;;68.70;;
55015;SDS011;40919;43.236;21.590;2022-12-07T03:49:22;132.07;;;74.43;;
55015;SDS011;40919;43.236;21.590;2022-12-07T03:52:03;98.63;;;61.10;;
55015;SDS011;40919;43.236;21.590;2022-12-07T03:54:41;118.88;;;69.03;;
55015;SDS011;40919;43.236;21.590;2022-12-07T03:57:10;100.13;;;61.15;;
55015;SDS011;40919;43.236;21.590;2022-12-07T03:59:37;103.53;;;60.88;;
55015;SDS011;40919;43.236;21.590;2022-12-07T04:02:05;92.30;;;58.33;;
55015;SDS011;40919;43.236;21.590;2022-12-07T04:04:31;98.55;;;59.28;;
55015;SDS011;40919;43.236;21.590;2022-12-07T04:06:59;78.38;;;48.22;;
55015;SDS011;40919;43.236;21.590;2022-12-07T04:09:25;85.60;;;52.53;;
55015;SDS011;40919;43.236;21.590;2022-12-07T04:11:51;82.20;;;52.08;;
55015;SDS011;40919;43.236;21.590;2022-12-07T04:14:17;90.32;;;58.20;;
55015;SDS011;40919;43.236;21.590;2022-12-07T04:16:46;75.45;;;47.63;;
55015;SDS011;40919;43.236;21.590;2022-12-07T04:19:14;74.80;;;49.00;;
55015;SDS011;40919;43.236;21.590;2022-12-07T04:21:41;79.45;;;50.67;;
55015;SDS011;40919;43.236;21.590;2022-12-07T04:24:07;70.80;;;47.72;;
55015;SDS011;40919;43.236;21.590;2022-12-07T04:26:33;67.30;;;45.60;;
55015;SDS011;40919;43.236;21.590;2022-12-07T04:28:58;78.00;;;47.25;;
55015;SDS011;40919;43.236;21.590;2022-12-07T04:31:25;68.80;;;45.08;;
55015;SDS011;40919;43.236;21.590;2022-12-07T04:33:50;84.60;;;52.08;;
55015;SDS011;40919;43.236;21.590;2022-12-07T04:36:16;79.28;;;49.33;;
55015;SDS011;40919;43.236;21.590;2022-12-07T04:38:42;97.00;;;60.38;;
55015;SDS011;40919;43.236;21.590;2022-12-07T04:41:08;85.95;;;53.45;;
55015;SDS011;40919;43.236;21.590;2022-12-07T04:43:34;103.40;;;64.75;;
55015;SDS011;40919;43.236;21.590;2022-12-07T04:46:01;108.22;;;63.60;;
55015;SDS011;40919;43.236;21.590;2022-12-07T04:48:27;112.15;;;65.97;;
55015;SDS011;40919;43.236;21.590;2022-12-07T04:50:53;111.82;;;65.80;;
55015;SDS011;40919;43.236;21.590;2022-12-07T04:53:19;95.30;;;59.97;;
55015;SDS011;40919;43.236;21.590;2022-12-07T04:55:45;109.15;;;67.43;;
55015;SDS011;40919;43.236;21.590;2022-12-07T04:58:12;91.13;;;57.75;;
55015;SDS011;40919;43.236;21.590;2022-12-07T05:00:38;103.22;;;65.60;;
55015;SDS011;40919;43.236;21.590;2022-12-07T05:03:04;98.28;;;61.55;;
55015;SDS011;40919;43.236;21.590;2022-12-07T05:05:30;104.68;;;67.78;;
55015;SDS011;40919;43.236;21.590;2022-12-07T05:07:56;97.22;;;63.47;;
55015;SDS011;40919;43.236;21.590;2022-12-07T05:10:22;100.90;;;68.72;;
55015;SDS011;40919;43.236;21.590;2022-12-07T05:12:48;117.47;;;76.05;;
55015;SDS011;40919;43.236;21.590;2022-12-07T05:15:14;122.15;;;75.72;;
55015;SDS011;40919;43.236;21.590;2022-12-07T05:17:40;110.90;;;70.15;;
55015;SDS011;40919;43.236;21.590;2022-12-07T05:20:07;96.13;;;62.60;;
55015;SDS011;40919;43.236;21.590;2022-12-07T05:22:33;102.85;;;63.95;;
55015;SDS011;40919;43.236;21.590;2022-12-07T05:24:59;120.40;;;77.75;;
55015;SDS011;40919;43.236;21.590;2022-12-07T05:27:25;117.72;;;80.45;;
55015;SDS011;40919;43.236;21.590;2022-12-07T05:29:51;128.60;;;81.18;;
55015;SDS011;40919;43.236;21.590;2022-12-07T05:32:17;130.00;;;79.57;;
55015;SDS011;40919;43.236;21.590;2022-12-07T05:34:43;170.73;;;99.60;;
55015;SDS011;40919;43.236;21.590;2022-12-07T05:37:09;185.20;;;106.18;;
55015;SDS011;40919;43.236;21.590;2022-12-07T05:39:35;181.63;;;100.13;;
55015;SDS011;40919;43.236;21.590;2022-12-07T05:42:02;141.80;;;85.32;;
55015;SDS011;40919;43.236;21.590;2022-12-07T05:44:42;134.82;;;75.68;;
55015;SDS011;40919;43.236;21.590;2022-12-07T05:47:08;119.03;;;72.25;;
55015;SDS011;40919;43.236;21.590;2022-12-07T05:49:34;108.80;;;68.05;;
55015;SDS011;40919;43.236;21.590;2022-12-07T05:52:00;95.50;;;61.33;;
55015;SDS011;40919;43.236;21.590;2022-12-07T05:54:26;84.47;;;51.72;;
55015;SDS011;40919;43.236;21.590;2022-12-07T05:56:52;81.95;;;49.60;;
55015;SDS011;40919;43.236;21.590;2022-12-07T05:59:19;91.53;;;58.03;;
55015;SDS011;40919;43.236;21.590;2022-12-07T06:04:17;116.57;;;70.90;;
55015;SDS011;40919;43.236;21.590;2022-12-07T06:06:43;129.00;;;79.50;;
55015;SDS011;40919;43.236;21.590;2022-12-07T06:09:10;185.75;;;112.85;;
55015;SDS011;40919;43.236;21.590;2022-12-07T06:11:37;187.93;;;118.43;;
55015;SDS011;40919;43.236;21.590;2022-12-07T06:14:22;188.18;;;123.18;;
55015;SDS011;40919;43.236;21.590;2022-12-07T06:16:48;323.98;;;221.13;;
55015;SDS011;40919;43.236;21.590;2022-12-07T06:19:14;550.85;;;380.48;;
55015;SDS011;40919;43.236;21.590;2022-12-07T06:21:41;428.73;;;305.30;;
55015;SDS011;40919;43.236;21.590;2022-12-07T06:24:08;307.63;;;222.52;;
55015;SDS011;40919;43.236;21.590;2022-12-07T06:26:34;199.32;;;148.63;;
55015;SDS011;40919;43.236;21.590;2022-12-07T06:29:01;140.30;;;95.13;;
55015;SDS011;40919;43.236;21.590;2022-12-07T06:31:27;129.40;;;85.22;;
55015;SDS011;40919;43.236;21.590;2022-12-07T06:33:59;193.32;;;116.72;;
55015;SDS011;40919;43.236;21.590;2022-12-07T06:38:52;193.05;;;111.85;;
55015;SDS011;40919;43.236;21.590;2022-12-07T06:41:18;194.25;;;126.35;;
55015;SDS011;40919;43.236;21.590;2022-12-07T06:43:44;188.75;;;118.88;;
55015;SDS011;40919;43.236;21.590;2022-12-07T06:46:10;209.18;;;122.68;;
55015;SDS011;40919;43.236;21.590;2022-12-07T06:48:36;174.98;;;100.97;;
55015;SDS011;40919;43.236;21.590;2022-12-07T06:51:02;157.27;;;92.32;;
55015;SDS011;40919;43.236;21.590;2022-12-07T06:53:29;140.93;;;92.13;;
55015;SDS011;40919;43.236;21.590;2022-12-07T06:55:55;167.52;;;106.15;;
55015;SDS011;40919;43.236;21.590;2022-12-07T06:58:21;175.40;;;105.35;;
55015;SDS011;40919;43.236;21.590;2022-12-07T07:00:47;155.23;;;101.25;;
55015;SDS011;40919;43.236;21.590;2022-12-07T07:03:14;174.10;;;110.47;;
55015;SDS011;40919;43.236;21.590;2022-12-07T07:05:41;181.98;;;122.55;;
55015;SDS011;40919;43.236;21.590;2022-12-07T07:08:07;166.77;;;109.38;;
55015;SDS011;40919;43.236;21.590;2022-12-07T07:10:34;152.45;;;103.50;;
55015;SDS011;40919;43.236;21.590;2022-12-07T07:13:00;132.75;;;88.55;;
55015;SDS011;40919;43.236;21.590;2022-12-07T07:15:26;163.52;;;105.57;;
55015;SDS011;40919;43.236;21.590;2022-12-07T07:17:52;153.93;;;97.70;;
55015;SDS011;40919;43.236;21.590;2022-12-07T07:20:19;180.57;;;119.00;;
55015;SDS011;40919;43.236;21.590;2022-12-07T07:22:45;178.40;;;117.63;;
55015;SDS011;40919;43.236;21.590;2022-12-07T07:25:11;132.75;;;89.80;;
55015;SDS011;40919;43.236;21.590;2022-12-07T07:27:37;89.03;;;59.53;;
55015;SDS011;40919;43.236;21.590;2022-12-07T07:30:03;95.75;;;63.70;;
55015;SDS011;40919;43.236;21.590;2022-12-07T07:32:30;103.82;;;69.15;;
55015;SDS011;40919;43.236;21.590;2022-12-07T07:34:56;107.13;;;69.30;;
55015;SDS011;40919;43.236;21.590;2022-12-07T07:37:22;106.13;;;67.03;;
55015;SDS011;40919;43.236;21.590;2022-12-07T07:39:48;89.10;;;61.92;;
55015;SDS011;40919;43.236;21.590;2022-12-07T07:42:14;99.35;;;68.97;;
55015;SDS011;40919;43.236;21.590;2022-12-07T07:44:40;119.65;;;80.28;;
55015;SDS011;40919;43.236;21.590;2022-12-07T07:47:07;129.27;;;87.30;;
55015;SDS011;40919;43.236;21.590;2022-12-07T07:49:33;169.68;;;111.43;;
55015;SDS011;40919;43.236;21.590;2022-12-07T07:51:59;138.60;;;94.72;;
55015;SDS011;40919;43.236;21.590;2022-12-07T07:54:25;122.47;;;84.93;;
55015;SDS011;40919;43.236;21.590;2022-12-07T07:56:52;115.47;;;78.35;;
55015;SDS011;40919;43.236;21.590;2022-12-07T07:59:18;105.32;;;74.93;;
55015;SDS011;40919;43.236;21.590;2022-12-07T08:01:44;90.63;;;63.42;;
55015;SDS011;40919;43.236;21.590;2022-12-07T08:04:10;88.35;;;61.47;;
55015;SDS011;40919;43.236;21.590;2022-12-07T08:06:36;69.35;;;51.42;;
55015;SDS011;40919;43.236;21.590;2022-12-07T08:09:02;67.55;;;47.72;;
55015;SDS011;40919;43.236;21.590;2022-12-07T08:11:30;79.82;;;55.65;;
55015;SDS011;40919;43.236;21.590;2022-12-07T08:13:56;81.40;;;56.08;;
55015;SDS011;40919;43.236;21.590;2022-12-07T08:16:23;83.65;;;57.92;;
55015;SDS011;40919;43.236;21.590;2022-12-07T08:18:49;73.22;;;54.75;;
55015;SDS011;40919;43.236;21.590;2022-12-07T08:21:15;71.47;;;52.90;;
55015;SDS011;40919;43.236;21.590;2022-12-07T08:23:41;72.90;;;50.83;;
55015;SDS011;40919;43.236;21.590;2022-12-07T08:26:08;77.88;;;55.03;;
55015;SDS011;40919;43.236;21.590;2022-12-07T08:28:35;74.35;;;54.35;;
55015;SDS011;40919;43.236;21.590;2022-12-07T08:31:05;102.03;;;73.47;;
55015;SDS011;40919;43.236;21.590;2022-12-07T08:33:32;102.97;;;68.65;;
55015;SDS011;40919;43.236;21.590;2022-12-07T08:36:02;88.78;;;60.03;;
55015;SDS011;40919;43.236;21.590;2022-12-07T08:38:28;72.10;;;48.70;;
55015;SDS011;40919;43.236;21.590;2022-12-07T08:40:55;60.65;;;40.92;;
55015;SDS011;40919;43.236;21.590;2022-12-07T08:43:22;55.03;;;39.47;;
55015;SDS011;40919;43.236;21.590;2022-12-07T08:45:49;60.08;;;42.58;;
55015;SDS011;40919;43.236;21.590;2022-12-07T08:48:17;58.40;;;41.88;;
55015;SDS011;40919;43.236;21.590;2022-12-07T08:50:47;61.92;;;45.55;;
55015;SDS011;40919;43.236;21.590;2022-12-07T08:53:13;69.95;;;45.33;;
55015;SDS011;40919;43.236;21.590;2022-12-07T08:55:39;56.63;;;40.50;;
55015;SDS011;40919;43.236;21.590;2022-12-07T08:58:05;65.22;;;47.35;;
55015;SDS011;40919;43.236;21.590;2022-12-07T09:00:31;66.82;;;51.97;;
55015;SDS011;40919;43.236;21.590;2022-12-07T09:02:58;60.38;;;44.72;;
55015;SDS011;40919;43.236;21.590;2022-12-07T09:05:24;62.15;;;44.35;;
55015;SDS011;40919;43.236;21.590;2022-12-07T09:07:51;61.47;;;42.38;;
55015;SDS011;40919;43.236;21.590;2022-12-07T09:10:18;58.30;;;42.80;;
55015;SDS011;40919;43.236;21.590;2022-12-07T09:12:44;53.53;;;40.30;;
55015;SDS011;40919;43.236;21.590;2022-12-07T09:15:10;59.20;;;41.00;;
55015;SDS011;40919;43.236;21.590;2022-12-07T09:17:36;59.80;;;43.47;;
55015;SDS011;40919;43.236;21.590;2022-12-07T09:20:03;64.05;;;45.45;;
55015;SDS011;40919;43.236;21.590;2022-12-07T09:22:30;61.92;;;45.08;;
55015;SDS011;40919;43.236;21.590;2022-12-07T09:24:57;45.22;;;34.03;;
55015;SDS011;40919;43.236;21.590;2022-12-07T09:27:23;57.53;;;46.50;;
55015;SDS011;40919;43.236;21.590;2022-12-07T09:29:49;76.80;;;59.38;;
55015;SDS011;40919;43.236;21.590;2022-12-07T09:32:15;78.40;;;58.78;;
55015;SDS011;40919;43.236;21.590;2022-12-07T09:34:41;62.67;;;47.00;;
55015;SDS011;40919;43.236;21.590;2022-12-07T09:37:07;60.10;;;43.13;;
55015;SDS011;40919;43.236;21.590;2022-12-07T09:39:33;59.30;;;45.13;;
55015;SDS011;40919;43.236;21.590;2022-12-07T09:41:59;76.38;;;59.78;;
55015;SDS011;40919;43.236;21.590;2022-12-07T09:44:29;61.85;;;48.53;;
55015;SDS011;40919;43.236;21.590;2022-12-07T09:46:55;68.90;;;52.60;;
55015;SDS011;40919;43.236;21.590;2022-12-07T09:49:23;76.18;;;56.65;;
55015;SDS011;40919;43.236;21.590;2022-12-07T09:52:02;61.95;;;46.50;;
55015;SDS011;40919;43.236;21.590;2022-12-07T09:54:28;65.03;;;46.83;;
55015;SDS011;40919;43.236;21.590;2022-12-07T09:56:55;75.05;;;50.20;;
55015;SDS011;40919;43.236;21.590;2022-12-07T09:59:21;77.95;;;52.47;;
55015;SDS011;40919;43.236;21.590;2022-12-07T10:01:48;53.03;;;40.55;;
55015;SDS011;40919;43.236;21.590;2022-12-07T10:04:18;79.40;;;60.42;;
55015;SDS011;40919;43.236;21.590;2022-12-07T10:06:47;77.60;;;56.30;;
55015;SDS011;40919;43.236;21.590;2022-12-07T10:09:14;62.42;;;49.88;;
55015;SDS011;40919;43.236;21.590;2022-12-07T10:14:29;57.83;;;41.58;;
55015;SDS011;40919;43.236;21.590;2022-12-07T10:16:56;113.68;;;80.25;;
55015;SDS011;40919;43.236;21.590;2022-12-07T10:19:26;87.07;;;63.80;;
55015;SDS011;40919;43.236;21.590;2022-12-07T10:24:39;77.72;;;57.42;;
55015;SDS011;40919;43.236;21.590;2022-12-07T10:27:21;60.33;;;47.05;;
55015;SDS011;40919;43.236;21.590;2022-12-07T10:29:56;51.45;;;39.90;;
55015;SDS011;40919;43.236;21.590;2022-12-07T10:32:31;48.45;;;38.53;;
55015;SDS011;40919;43.236;21.590;2022-12-07T10:38:07;31.58;;;24.10;;
55015;SDS011;40919;43.236;21.590;2022-12-07T10:40:41;57.97;;;47.42;;
55015;SDS011;40919;43.236;21.590;2022-12-07T10:48:33;18.92;;;13.93;;
55015;SDS011;40919;43.236;21.590;2022-12-07T10:51:39;15.88;;;10.98;;
55015;SDS011;40919;43.236;21.590;2022-12-07T10:56:48;29.90;;;20.88;;
55015;SDS011;40919;43.236;21.590;2022-12-07T10:59:45;22.35;;;16.40;;
55015;SDS011;40919;43.236;21.590;2022-12-07T11:03:03;27.10;;;19.85;;
55015;SDS011;40919;43.236;21.590;2022-12-07T11:07:51;18.38;;;11.63;;
55015;SDS011;40919;43.236;21.590;2022-12-07T11:13:22;20.45;;;10.77;;
55015;SDS011;40919;43.236;21.590;2022-12-07T11:16:19;40.65;;;25.92;;
55015;SDS011;40919;43.236;21.590;2022-12-07T11:19:05;20.23;;;12.50;;
55015;SDS011;40919;43.236;21.590;2022-12-07T11:24:16;23.27;;;12.80;;
55015;SDS011;40919;43.236;21.590;2022-12-07T11:29:40;19.23;;;11.82;;
55015;SDS011;40919;43.236;21.590;2022-12-07T11:35:52;21.20;;;12.77;;
55015;SDS011;40919;43.236;21.590;2022-12-07T11:38:44;19.00;;;13.52;;
55015;SDS011;40919;43.236;21.590;2022-12-07T11:41:16;21.60;;;15.02;;
55015;SDS011;40919;43.236;21.590;2022-12-07T11:43:53;25.85;;;16.25;;
55015;SDS011;40919;43.236;21.590;2022-12-07T11:46:24;28.45;;;18.25;;
55015;SDS011;40919;43.236;21.590;2022-12-07T11:51:34;38.85;;;23.05;;
55015;SDS011;40919;43.236;21.590;2022-12-07T11:54:03;45.10;;;32.33;;
55015;SDS011;40919;43.236;21.590;2022-12-07T11:56:37;33.25;;;24.00;;
55015;SDS011;40919;43.236;21.590;2022-12-07T12:02:07;29.55;;;18.60;;
55015;SDS011;40919;43.236;21.590;2022-12-07T12:04:47;23.77;;;17.27;;
55015;SDS011;40919;43.236;21.590;2022-12-07T12:07:23;24.15;;;15.20;;
55015;SDS011;40919;43.236;21.590;2022-12-07T12:15:03;36.50;;;24.35;;
55015;SDS011;40919;43.236;21.590;2022-12-07T12:23:06;27.42;;;17.05;;
55015;SDS011;40919;43.236;21.590;2022-12-07T12:32:04;26.40;;;15.05;;
55015;SDS011;40919;43.236;21.590;2022-12-07T12:33:56;23.70;;;14.18;;
55015;SDS011;40919;43.236;21.590;2022-12-07T12:39:09;23.70;;;16.73;;
55015;SDS011;40919;43.236;21.590;2022-12-07T13:13:00;28.08;;;17.30;;
55015;SDS011;40919;43.236;21.590;2022-12-07T13:15:48;21.45;;;15.70;;
55015;SDS011;40919;43.236;21.590;2022-12-07T13:18:24;30.10;;;14.38;;
55015;SDS011;40919;43.236;21.590;2022-12-07T13:26:19;23.95;;;13.73;;
55015;SDS011;40919;43.236;21.590;2022-12-07T13:29:35;25.85;;;14.18;;
55015;SDS011;40919;43.236;21.590;2022-12-07T13:31:44;19.50;;;13.27;;
55015;SDS011;40919;43.236;21.590;2022-12-07T13:34:30;30.10;;;19.52;;
55015;SDS011;40919;43.236;21.590;2022-12-07T13:39:54;50.53;;;37.33;;
55015;SDS011;40919;43.236;21.590;2022-12-07T13:44:55;55.03;;;33.80;;
55015;SDS011;40919;43.236;21.590;2022-12-07T13:50:38;39.58;;;27.45;;
55015;SDS011;40919;43.236;21.590;2022-12-07T13:53:00;38.20;;;20.70;;
55015;SDS011;40919;43.236;21.590;2022-12-07T13:55:27;47.03;;;28.90;;
55015;SDS011;40919;43.236;21.590;2022-12-07T13:57:54;53.05;;;31.13;;
55015;SDS011;40919;43.236;21.590;2022-12-07T14:00:21;40.97;;;22.50;;
55015;SDS011;40919;43.236;21.590;2022-12-07T14:02:57;29.02;;;20.08;;
55015;SDS011;40919;43.236;21.590;2022-12-07T14:05:26;37.50;;;25.92;;
55015;SDS011;40919;43.236;21.590;2022-12-07T14:12:53;32.25;;;21.70;;
55015;SDS011;40919;43.236;21.590;2022-12-07T14:15:21;35.40;;;21.77;;
55015;SDS011;40919;43.236;21.590;2022-12-07T14:17:50;32.15;;;18.67;;
55015;SDS011;40919;43.236;21.590;2022-12-07T14:22:59;42.90;;;25.60;;
55015;SDS011;40919;43.236;21.590;2022-12-07T14:25:43;45.03;;;26.27;;
55015;SDS011;40919;43.236;21.590;2022-12-07T14:28:24;36.63;;;21.90;;
55015;SDS011;40919;43.236;21.590;2022-12-07T14:30:55;39.20;;;24.70;;
55015;SDS011;40919;43.236;21.590;2022-12-07T14:33:22;35.28;;;20.70;;
55015;SDS011;40919;43.236;21.590;2022-12-07T14:35:49;34.05;;;23.08;;
55015;SDS011;40919;43.236;21.590;2022-12-07T14:38:15;45.72;;;28.35;;
55015;SDS011;40919;43.236;21.590;2022-12-07T14:40:43;48.72;;;31.92;;
55015;SDS011;40919;43.236;21.590;2022-12-07T14:43:10;34.55;;;21.65;;
55015;SDS011;40919;43.236;21.590;2022-12-07T14:45:39;28.92;;;19.60;;
55015;SDS011;40919;43.236;21.590;2022-12-07T14:48:05;19.02;;;14.93;;
55015;SDS011;40919;43.236;21.590;2022-12-07T14:50:35;38.10;;;25.42;;
55015;SDS011;40919;43.236;21.590;2022-12-07T14:53:05;27.02;;;21.38;;
55015;SDS011;40919;43.236;21.590;2022-12-07T14:55:38;31.38;;;19.13;;
55015;SDS011;40919;43.236;21.590;2022-12-07T14:58:05;31.20;;;18.55;;
55015;SDS011;40919;43.236;21.590;2022-12-07T15:00:30;33.95;;;23.92;;
55015;SDS011;40919;43.236;21.590;2022-12-07T15:02:56;26.30;;;17.60;;
55015;SDS011;40919;43.236;21.590;2022-12-07T15:05:22;34.33;;;24.42;;
55015;SDS011;40919;43.236;21.590;2022-12-07T15:07:49;27.65;;;18.92;;
55015;SDS011;40919;43.236;21.590;2022-12-07T15:12:41;38.17;;;22.60;;
55015;SDS011;40919;43.236;21.590;2022-12-07T15:15:07;39.78;;;23.55;;
55015;SDS011;40919;43.236;21.590;2022-12-07T15:17:33;26.08;;;17.88;;
55015;SDS011;40919;43.236;21.590;2022-12-07T15:19:59;26.48;;;20.42;;
55015;SDS011;40919;43.236;21.590;2022-12-07T15:22:25;34.63;;;19.52;;
55015;SDS011;40919;43.236;21.590;2022-12-07T15:24:51;30.25;;;20.40;;
55015;SDS011;40919;43.236;21.590;2022-12-07T15:27:16;38.47;;;25.23;;
55015;SDS011;40919;43.236;21.590;2022-12-07T15:29:42;27.80;;;18.92;;
55015;SDS011;40919;43.236;21.590;2022-12-07T15:32:08;47.08;;;32.60;;
55015;SDS011;40919;43.236;21.590;2022-12-07T15:34:34;24.45;;;17.00;;
55015;SDS011;40919;43.236;21.590;2022-12-07T15:36:59;26.08;;;18.30;;
55015;SDS011;40919;43.236;21.590;2022-12-07T15:39:25;35.05;;;22.02;;
55015;SDS011;40919;43.236;21.590;2022-12-07T15:41:51;40.40;;;26.25;;
55015;SDS011;40919;43.236;21.590;2022-12-07T15:44:17;35.10;;;24.98;;
55015;SDS011;40919;43.236;21.590;2022-12-07T15:47:01;34.75;;;21.67;;
55015;SDS011;40919;43.236;21.590;2022-12-07T15:49:27;43.10;;;22.63;;
55015;SDS011;40919;43.236;21.590;2022-12-07T15:51:53;38.97;;;24.42;;
55015;SDS011;40919;43.236;21.590;2022-12-07T15:54:20;26.35;;;17.98;;
55015;SDS011;40919;43.236;21.590;2022-12-07T15:56:48;22.67;;;14.65;;
55015;SDS011;40919;43.236;21.590;2022-12-07T15:59:13;43.83;;;24.92;;
55015;SDS011;40919;43.236;21.590;2022-12-07T16:01:40;42.13;;;24.15;;
55015;SDS011;40919;43.236;21.590;2022-12-07T16:04:06;38.05;;;28.38;;
55015;SDS011;40919;43.236;21.590;2022-12-07T16:06:32;39.88;;;27.15;;
55015;SDS011;40919;43.236;21.590;2022-12-07T16:08:58;54.28;;;35.22;;
55015;SDS011;40919;43.236;21.590;2022-12-07T16:11:23;63.03;;;38.92;;
55015;SDS011;40919;43.236;21.590;2022-12-07T16:13:49;66.32;;;42.63;;
55015;SDS011;40919;43.236;21.590;2022-12-07T16:16:17;74.95;;;53.97;;
55015;SDS011;40919;43.236;21.590;2022-12-07T16:18:44;83.15;;;55.53;;
55015;SDS011;40919;43.236;21.590;2022-12-07T16:21:10;76.85;;;53.38;;
55015;SDS011;40919;43.236;21.590;2022-12-07T16:23:36;76.93;;;55.55;;
55015;SDS011;40919;43.236;21.590;2022-12-07T16:26:03;88.40;;;60.50;;
55015;SDS011;40919;43.236;21.590;2022-12-07T16:28:30;116.43;;;78.78;;
55015;SDS011;40919;43.236;21.590;2022-12-07T16:31:29;100.75;;;70.65;;
55015;SDS011;40919;43.236;21.590;2022-12-07T16:33:48;102.95;;;74.38;;
55015;SDS011;40919;43.236;21.590;2022-12-07T16:36:15;90.75;;;68.78;;
55015;SDS011;40919;43.236;21.590;2022-12-07T16:38:42;75.93;;;52.58;;
55015;SDS011;40919;43.236;21.590;2022-12-07T16:41:08;86.68;;;61.10;;
55015;SDS011;40919;43.236;21.590;2022-12-07T16:43:35;80.28;;;55.35;;
55015;SDS011;40919;43.236;21.590;2022-12-07T16:46:01;82.32;;;57.53;;
55015;SDS011;40919;43.236;21.590;2022-12-07T16:48:28;93.03;;;69.22;;